createdAt,value
2023-02-08T00:00:39.560Z,-1.09
2023-02-08T00:01:39.358Z,-1.12
2023-02-08T00:02:39.431Z,-1.17
2023-02-08T00:03:39.404Z,-1.13
2023-02-08T00:04:39.378Z,-1.20
2023-02-08T00:05:39.346Z,-1.13
2023-02-08T00:06:39.350Z,-1.15
2023-02-08T00:07:39.338Z,-1.15
2023-02-08T00:08:39.383Z,-1.23
2023-02-08T00:09:39.360Z,-1.20
2023-02-08T00:10:39.742Z,-1.20
2023-02-08T00:11:39.328Z,-1.15
2023-02-08T00:12:39.292Z,-1.19
2023-02-08T00:13:41.654Z,-1.25
2023-02-08T00:14:39.298Z,-1.22
2023-02-08T00:15:39.289Z,-1.19
2023-02-08T00:16:39.268Z,-1.22
2023-02-08T00:17:39.280Z,-1.22
2023-02-08T00:18:39.242Z,-1.22
2023-02-08T00:19:39.271Z,-1.20
2023-02-08T00:20:39.509Z,-1.23
2023-02-08T00:21:39.257Z,-1.28
2023-02-08T00:22:39.256Z,-1.19
2023-02-08T00:23:39.236Z,-1.25
2023-02-08T00:24:39.244Z,-1.22
2023-02-08T00:25:39.242Z,-1.31
2023-02-08T00:26:39.215Z,-1.27
2023-02-08T00:27:39.186Z,-1.31
2023-02-08T00:28:39.201Z,-1.38
2023-02-08T00:29:39.195Z,-1.37
2023-02-08T00:30:39.647Z,-1.40
2023-02-08T00:31:39.325Z,-1.38
2023-02-08T00:32:39.157Z,-1.37
2023-02-08T00:33:39.152Z,-1.40
2023-02-08T00:34:39.137Z,-1.41
2023-02-08T00:35:39.160Z,-1.45
2023-02-08T00:36:39.161Z,-1.54
2023-02-08T00:37:39.129Z,-1.51
2023-02-08T00:38:39.122Z,-1.55
2023-02-08T00:39:39.128Z,-1.58
2023-02-08T00:40:39.358Z,-1.55
2023-02-08T00:41:39.148Z,-1.41
2023-02-08T00:42:39.101Z,-1.52
2023-02-08T00:43:39.082Z,-1.51
2023-02-08T00:44:39.083Z,-1.56
2023-02-08T00:45:39.078Z,-1.64
2023-02-08T00:46:39.097Z,-1.54
2023-02-08T00:47:39.055Z,-1.56
2023-02-08T00:48:39.062Z,-1.54
2023-02-08T00:49:39.045Z,-1.51
2023-02-08T00:50:39.334Z,-1.54
2023-02-08T00:51:39.027Z,-1.62
2023-02-08T00:52:39.054Z,-1.58
2023-02-08T00:53:39.022Z,-1.54
2023-02-08T00:54:39.009Z,-1.59
2023-02-08T00:55:39.006Z,-1.54
2023-02-08T00:56:38.984Z,-1.55
2023-02-08T00:57:38.988Z,-1.55
2023-02-08T00:58:38.987Z,-1.58
2023-02-08T00:59:38.974Z,-1.61
2023-02-08T01:00:39.355Z,-1.61
2023-02-08T01:01:38.976Z,-1.55
2023-02-08T01:02:38.957Z,-1.61
2023-02-08T01:03:38.961Z,-1.58
2023-02-08T01:04:38.930Z,-1.61
2023-02-08T01:05:38.928Z,-1.72
2023-02-08T01:06:38.922Z,-1.70
2023-02-08T01:07:38.921Z,-1.70
2023-02-08T01:08:38.934Z,-1.73
2023-02-08T01:09:38.932Z,-1.80
2023-02-08T01:10:39.161Z,-1.79
2023-02-08T01:11:38.886Z,-1.80
2023-02-08T01:12:38.879Z,-1.74
2023-02-08T01:13:38.887Z,-1.67
2023-02-08T01:14:38.885Z,-1.80
2023-02-08T01:15:38.857Z,-1.72
2023-02-08T01:16:38.876Z,-1.82
2023-02-08T01:17:38.842Z,-1.84
2023-02-08T01:18:38.837Z,-1.90
2023-02-08T01:19:39.230Z,-1.82
2023-02-08T01:20:39.194Z,-1.82
2023-02-08T01:21:38.809Z,-1.87
2023-02-08T01:22:38.817Z,-1.85
2023-02-08T01:23:38.790Z,-1.91
2023-02-08T01:24:38.810Z,-1.92
2023-02-08T01:25:38.800Z,-1.88
2023-02-08T01:26:38.772Z,-1.97
2023-02-08T01:27:38.790Z,-1.95
2023-02-08T01:28:38.765Z,-1.94
2023-02-08T01:29:38.760Z,-2.00
2023-02-08T01:30:39.299Z,-1.95
2023-02-08T01:31:38.792Z,-1.90
2023-02-08T01:32:38.741Z,-1.97
2023-02-08T01:33:38.738Z,-1.94
2023-02-08T01:34:38.730Z,-2.00
2023-02-08T01:35:38.752Z,-1.95
2023-02-08T01:36:38.711Z,-1.94
2023-02-08T01:37:38.718Z,-1.97
2023-02-08T01:38:38.731Z,-1.92
2023-02-08T01:39:38.691Z,-2.05
2023-02-08T01:40:38.975Z,-1.92
2023-02-08T01:41:38.732Z,-1.94
2023-02-08T01:42:38.679Z,-1.91
2023-02-08T01:43:38.667Z,-2.00
2023-02-08T01:44:47.004Z,-1.95
2023-02-08T01:45:38.724Z,-1.95
2023-02-08T01:46:38.637Z,-1.91
2023-02-08T01:47:38.636Z,-1.95
2023-02-08T01:48:38.637Z,-2.03
2023-02-08T01:49:38.610Z,-1.95
2023-02-08T01:50:38.817Z,-2.03
2023-02-08T01:51:38.606Z,-1.92
2023-02-08T01:52:38.603Z,-1.98
2023-02-08T01:53:38.580Z,-2.06
2023-02-08T01:54:38.591Z,-2.06
2023-02-08T01:55:38.587Z,-2.02
2023-02-08T01:56:38.600Z,-2.00
2023-02-08T01:57:38.551Z,-2.02
2023-02-08T01:58:38.544Z,-2.03
2023-02-08T01:59:38.554Z,-1.91
2023-02-08T02:00:38.831Z,-2.00
2023-02-08T02:01:38.537Z,-1.92
2023-02-08T02:02:38.558Z,-1.97
2023-02-08T02:03:38.509Z,-2.02
2023-02-08T02:04:38.546Z,-2.10
2023-02-08T02:05:38.507Z,-2.00
2023-02-08T02:06:38.489Z,-1.97
2023-02-08T02:07:38.492Z,-2.12
2023-02-08T02:08:38.514Z,-1.95
2023-02-08T02:09:38.468Z,-2.02
2023-02-08T02:10:38.690Z,-2.09
2023-02-08T02:11:38.479Z,-1.94
2023-02-08T02:12:38.445Z,-1.97
2023-02-08T02:13:38.449Z,-1.97
2023-02-08T02:14:38.446Z,-2.05
2023-02-08T02:15:38.421Z,-2.08
2023-02-08T02:16:38.459Z,-2.03
2023-02-08T02:17:38.417Z,-2.12
2023-02-08T02:18:38.417Z,-2.09
2023-02-08T02:19:38.395Z,-2.12
2023-02-08T02:20:38.414Z,-2.08
2023-02-08T02:21:38.406Z,-2.08
2023-02-08T02:22:38.426Z,-2.10
2023-02-08T02:23:38.407Z,-2.12
2023-02-08T02:24:38.361Z,-2.13
2023-02-08T02:25:38.351Z,-2.06
2023-02-08T02:26:38.355Z,-2.16
2023-02-08T02:27:38.346Z,-2.15
2023-02-08T02:28:38.329Z,-2.23
2023-02-08T02:29:38.337Z,-2.20
2023-02-08T02:30:38.591Z,-2.15
2023-02-08T02:31:38.342Z,-2.27
2023-02-08T02:32:38.322Z,-2.18
2023-02-08T02:33:38.293Z,-2.20
2023-02-08T02:34:38.317Z,-2.18
2023-02-08T02:35:38.289Z,-2.18
2023-02-08T02:36:38.290Z,-2.26
2023-02-08T02:37:38.266Z,-2.27
2023-02-08T02:38:38.270Z,-2.20
2023-02-08T02:39:38.265Z,-2.24
2023-02-08T02:40:38.651Z,-2.26
2023-02-08T02:41:38.241Z,-2.20
2023-02-08T02:42:38.233Z,-2.30
2023-02-08T02:43:38.240Z,-2.23
2023-02-08T02:44:38.245Z,-2.18
2023-02-08T02:45:38.250Z,-2.26
2023-02-08T02:46:38.225Z,-2.10
2023-02-08T02:47:38.203Z,-2.16
2023-02-08T02:48:38.191Z,-2.08
2023-02-08T02:49:38.190Z,-2.09
2023-02-08T02:50:38.457Z,-2.15
2023-02-08T02:51:38.176Z,-2.08
2023-02-08T02:52:38.160Z,-2.08
2023-02-08T02:53:38.165Z,-2.08
2023-02-08T02:54:38.147Z,-2.20
2023-02-08T02:55:38.160Z,-2.10
2023-02-08T02:56:38.130Z,-2.15
2023-02-08T02:57:38.125Z,-2.20
2023-02-08T02:58:38.114Z,-2.16
2023-02-08T02:59:38.121Z,-2.18
2023-02-08T03:00:38.379Z,-2.20
2023-02-08T03:01:38.098Z,-2.32
2023-02-08T03:02:38.108Z,-2.27
2023-02-08T03:03:38.087Z,-2.29
2023-02-08T03:04:38.080Z,-2.29
2023-02-08T03:05:38.089Z,-2.34
2023-02-08T03:06:38.077Z,-2.27
2023-02-08T03:07:38.096Z,-2.32
2023-02-08T03:08:38.068Z,-2.29
2023-02-08T03:09:38.057Z,-2.32
2023-02-08T03:10:38.343Z,-2.30
2023-02-08T03:11:38.029Z,-2.34
2023-02-08T03:12:38.037Z,-2.34
2023-02-08T03:13:38.016Z,-2.35
2023-02-08T03:14:38.015Z,-2.29
2023-02-08T03:15:38.002Z,-2.29
2023-02-08T03:16:38.002Z,-2.26
2023-02-08T03:17:37.996Z,-2.34
2023-02-08T03:18:37.984Z,-2.29
2023-02-08T03:19:37.964Z,-2.27
2023-02-08T03:20:38.263Z,-2.29
2023-02-08T03:21:37.951Z,-2.29
2023-02-08T03:22:37.969Z,-2.29
2023-02-08T03:23:37.945Z,-2.23
2023-02-08T03:24:37.928Z,-2.21
2023-02-08T03:25:37.924Z,-2.21
2023-02-08T03:26:37.927Z,-2.24
2023-02-08T03:27:37.913Z,-2.23
2023-02-08T03:28:37.923Z,-2.23
2023-02-08T03:29:37.890Z,-2.30
2023-02-08T03:30:38.088Z,-2.18
2023-02-08T03:31:38.043Z,-2.23
2023-02-08T03:32:37.897Z,-2.15
2023-02-08T03:33:37.900Z,-2.21
2023-02-08T03:34:37.868Z,-2.24
2023-02-08T03:35:37.848Z,-2.20
2023-02-08T03:36:37.852Z,-2.15
2023-02-08T03:37:37.829Z,-2.18
2023-02-08T03:38:37.840Z,-2.23
2023-02-08T03:39:37.825Z,-2.23
2023-02-08T03:40:37.897Z,-2.21
2023-02-08T03:41:37.810Z,-2.13
2023-02-08T03:42:37.794Z,-2.26
2023-02-08T03:43:37.811Z,-2.21
2023-02-08T03:44:37.805Z,-2.15
2023-02-08T03:45:37.790Z,-2.21
2023-02-08T03:46:37.780Z,-2.18
2023-02-08T03:47:37.760Z,-2.26
2023-02-08T03:48:37.759Z,-2.15
2023-02-08T03:49:37.766Z,-2.08
2023-02-08T03:50:38.042Z,-2.10
2023-02-08T03:51:37.754Z,-2.12
2023-02-08T03:52:37.728Z,-2.18
2023-02-08T03:53:37.719Z,-2.29
2023-02-08T03:54:37.732Z,-2.20
2023-02-08T03:55:37.733Z,-2.16
2023-02-08T03:56:37.722Z,-2.24
2023-02-08T03:57:37.699Z,-2.12
2023-02-08T03:58:37.675Z,-2.12
2023-02-08T03:59:37.676Z,-2.10
2023-02-08T04:00:37.804Z,-1.98
2023-02-08T04:01:37.707Z,-1.98
2023-02-08T04:02:38.057Z,-1.94
2023-02-08T04:03:37.647Z,-1.88
2023-02-08T04:04:37.679Z,-1.82
2023-02-08T04:05:37.633Z,-1.80
2023-02-08T04:06:37.634Z,-1.77
2023-02-08T04:07:37.616Z,-1.67
2023-02-08T04:08:37.616Z,-1.66
2023-02-08T04:09:38.876Z,-1.61
2023-02-08T04:10:37.608Z,-1.58
2023-02-08T04:11:37.622Z,-1.51
2023-02-08T04:12:37.570Z,-1.51
2023-02-08T04:13:37.566Z,-1.52
2023-02-08T04:14:37.567Z,-1.54
2023-02-08T04:15:37.573Z,-1.38
2023-02-08T04:16:37.543Z,-1.40
2023-02-08T04:17:37.552Z,-1.34
2023-02-08T04:18:37.538Z,-1.41
2023-02-08T04:19:37.541Z,-1.51
2023-02-08T04:20:37.585Z,-1.52
2023-02-08T04:21:37.518Z,-1.52
2023-02-08T04:22:37.498Z,-1.59
2023-02-08T04:23:37.504Z,-1.59
2023-02-08T04:24:37.494Z,-1.66
2023-02-08T04:25:37.489Z,-1.67
2023-02-08T04:26:37.515Z,-1.67
2023-02-08T04:27:37.472Z,-1.77
2023-02-08T04:28:37.463Z,-1.82
2023-02-08T04:29:37.467Z,-1.79
2023-02-08T04:30:37.462Z,-1.88
2023-02-08T04:31:37.566Z,-1.82
2023-02-08T04:32:37.427Z,-1.77
2023-02-08T04:33:37.440Z,-1.91
2023-02-08T04:34:37.415Z,-1.94
2023-02-08T04:35:37.415Z,-1.92
2023-02-08T04:36:37.400Z,-1.91
2023-02-08T04:37:37.401Z,-1.95
2023-02-08T04:38:37.411Z,-1.91
2023-02-08T04:39:37.402Z,-2.00
2023-02-08T04:40:37.383Z,-1.94
2023-02-08T04:41:37.366Z,-1.95
2023-02-08T04:42:37.397Z,-1.95
2023-02-08T04:43:37.378Z,-2.05
2023-02-08T04:44:37.357Z,-2.06
2023-02-08T04:45:37.351Z,-2.06
2023-02-08T04:46:37.391Z,-2.00
2023-02-08T04:47:37.326Z,-2.03
2023-02-08T04:48:37.334Z,-2.00
2023-02-08T04:49:37.306Z,-2.09
2023-02-08T04:50:37.304Z,-1.98
2023-02-08T04:51:37.308Z,-2.08
2023-02-08T04:52:37.299Z,-2.08
2023-02-08T04:53:37.312Z,-2.08
2023-02-08T04:54:38.794Z,-2.10
2023-02-08T04:55:37.268Z,-2.06
2023-02-08T04:56:37.269Z,-2.10
2023-02-08T04:57:37.267Z,-2.08
2023-02-08T04:58:37.246Z,-2.02
2023-02-08T04:59:37.249Z,-2.08
2023-02-08T05:00:37.238Z,-2.06
2023-02-08T05:01:37.256Z,-2.10
2023-02-08T05:02:37.226Z,-2.08
2023-02-08T05:03:37.253Z,-2.09
2023-02-08T05:04:37.237Z,-2.10
2023-02-08T05:05:37.206Z,-2.18
2023-02-08T05:06:37.212Z,-2.16
2023-02-08T05:07:37.178Z,-2.26
2023-02-08T05:08:37.180Z,-2.23
2023-02-08T05:09:37.173Z,-2.15
2023-02-08T05:10:37.167Z,-2.18
2023-02-08T05:11:37.165Z,-2.23
2023-02-08T05:12:37.156Z,-2.27
2023-02-08T05:13:37.133Z,-2.24
2023-02-08T05:14:37.141Z,-2.26
2023-02-08T05:15:37.120Z,-2.26
2023-02-08T05:16:37.116Z,-2.15
2023-02-08T05:17:37.110Z,-2.18
2023-02-08T05:18:37.116Z,-2.16
2023-02-08T05:19:37.106Z,-2.16
2023-02-08T05:20:37.079Z,-2.08
2023-02-08T05:21:37.072Z,-2.12
2023-02-08T05:22:37.077Z,-2.10
2023-02-08T05:23:37.091Z,-2.13
2023-02-08T05:24:37.086Z,-2.05
2023-02-08T05:25:37.048Z,-2.09
2023-02-08T05:26:37.035Z,-2.08
2023-02-08T05:27:37.037Z,-2.12
2023-02-08T05:28:37.040Z,-2.12
2023-02-08T05:29:37.054Z,-2.09
2023-02-08T05:30:37.024Z,-2.12
2023-02-08T05:31:37.114Z,-2.15
2023-02-08T05:32:37.013Z,-2.15
2023-02-08T05:33:36.992Z,-2.18
2023-02-08T05:34:36.976Z,-2.15
2023-02-08T05:35:37.005Z,-2.21
2023-02-08T05:36:36.998Z,-2.15
2023-02-08T05:37:36.954Z,-2.15
2023-02-08T05:38:36.957Z,-2.12
2023-02-08T05:39:36.940Z,-2.08
2023-02-08T05:40:36.932Z,-2.16
2023-02-08T05:41:36.950Z,-2.24
2023-02-08T05:42:36.947Z,-2.20
2023-02-08T05:43:36.917Z,-2.13
2023-02-08T05:44:36.926Z,-2.23
2023-02-08T05:45:36.896Z,-2.34
2023-02-08T05:46:38.343Z,-2.30
2023-02-08T05:47:36.908Z,-2.16
2023-02-08T05:48:36.893Z,-2.16
2023-02-08T05:49:36.902Z,-2.21
2023-02-08T05:50:36.863Z,-2.26
2023-02-08T05:51:36.843Z,-2.15
2023-02-08T05:52:36.865Z,-2.18
2023-02-08T05:53:36.848Z,-2.16
2023-02-08T05:54:36.868Z,-2.16
2023-02-08T05:55:36.831Z,-2.12
2023-02-08T05:56:36.807Z,-2.32
2023-02-08T05:57:36.809Z,-2.18
2023-02-08T05:58:36.803Z,-2.24
2023-02-08T05:59:36.813Z,-2.26
2023-02-08T06:00:36.772Z,-2.24
2023-02-08T06:01:36.782Z,-2.23
2023-02-08T06:02:36.798Z,-2.26
2023-02-08T06:03:36.778Z,-2.27
2023-02-08T06:04:38.977Z,-2.26
2023-02-08T06:05:36.760Z,-2.29
2023-02-08T06:06:36.750Z,-2.21
2023-02-08T06:07:36.751Z,-2.37
2023-02-08T06:08:36.741Z,-2.37
2023-02-08T06:09:36.717Z,-2.26
2023-02-08T06:10:36.714Z,-2.35
2023-02-08T06:11:36.692Z,-2.37
2023-02-08T06:12:36.693Z,-2.39
2023-02-08T06:13:36.712Z,-2.37
2023-02-08T06:14:36.674Z,-2.34
2023-02-08T06:15:36.676Z,-2.40
2023-02-08T06:16:36.677Z,-2.39
2023-02-08T06:17:36.665Z,-2.34
2023-02-08T06:18:36.630Z,-2.34
2023-02-08T06:19:36.830Z,-2.42
2023-02-08T06:20:36.639Z,-2.39
2023-02-08T06:21:36.621Z,-2.35
2023-02-08T06:22:36.621Z,-2.32
2023-02-08T06:23:36.608Z,-2.34
2023-02-08T06:24:36.612Z,-2.27
2023-02-08T06:25:36.582Z,-2.35
2023-02-08T06:26:36.602Z,-2.35
2023-02-08T06:27:36.587Z,-2.35
2023-02-08T06:28:36.557Z,-2.32
2023-02-08T06:29:36.560Z,-2.32
2023-02-08T06:30:36.557Z,-2.29
2023-02-08T06:31:36.584Z,-2.32
2023-02-08T06:32:36.596Z,-2.37
2023-02-08T06:33:36.527Z,-2.34
2023-02-08T06:34:36.519Z,-2.29
2023-02-08T06:35:36.504Z,-2.32
2023-02-08T06:36:36.514Z,-2.34
2023-02-08T06:37:36.524Z,-2.27
2023-02-08T06:38:36.485Z,-2.37
2023-02-08T06:39:36.500Z,-2.29
2023-02-08T06:40:36.482Z,-2.37
2023-02-08T06:41:36.467Z,-2.34
2023-02-08T06:42:36.471Z,-2.32
2023-02-08T06:43:36.455Z,-2.30
2023-02-08T06:44:36.439Z,-2.37
2023-02-08T06:45:36.526Z,-2.40
2023-02-08T06:46:36.439Z,-2.39
2023-02-08T06:47:36.459Z,-2.32
2023-02-08T06:48:36.440Z,-2.35
2023-02-08T06:49:36.405Z,-2.34
2023-02-08T06:50:36.386Z,-2.39
2023-02-08T06:51:36.396Z,-2.42
2023-02-08T06:52:36.385Z,-2.48
2023-02-08T06:53:36.392Z,-2.45
2023-02-08T06:54:36.351Z,-2.40
2023-02-08T06:55:36.348Z,-2.32
2023-02-08T06:56:36.355Z,-2.37
2023-02-08T06:57:36.334Z,-2.37
2023-02-08T06:58:36.344Z,-2.32
2023-02-08T06:59:36.321Z,-2.34
2023-02-08T07:00:36.347Z,-2.34
2023-02-08T07:01:36.344Z,-2.37
2023-02-08T07:02:36.338Z,-2.27
2023-02-08T07:03:36.305Z,-2.29
2023-02-08T07:04:36.306Z,-2.40
2023-02-08T07:05:36.280Z,-2.30
2023-02-08T07:06:36.273Z,-2.35
2023-02-08T07:07:36.266Z,-2.23
2023-02-08T07:08:36.253Z,-2.27
2023-02-08T07:09:36.273Z,-2.24
2023-02-08T07:10:36.284Z,-2.18
2023-02-08T07:11:36.226Z,-2.13
2023-02-08T07:12:36.228Z,-2.15
2023-02-08T07:13:36.225Z,-2.10
2023-02-08T07:14:36.272Z,-2.06
2023-02-08T07:15:36.202Z,-2.10
2023-02-08T07:16:36.216Z,-1.98
2023-02-08T07:17:36.173Z,-1.97
2023-02-08T07:18:36.171Z,-1.94
2023-02-08T07:19:36.159Z,-1.97
2023-02-08T07:20:36.189Z,-1.94
2023-02-08T07:21:36.153Z,-1.82
2023-02-08T07:22:36.151Z,-1.79
2023-02-08T07:23:36.139Z,-1.67
2023-02-08T07:24:36.144Z,-1.54
2023-02-08T07:25:36.138Z,-1.56
2023-02-08T07:26:36.131Z,-1.34
2023-02-08T07:27:36.095Z,-1.35
2023-02-08T07:28:36.112Z,-1.33
2023-02-08T07:29:36.100Z,-1.22
2023-02-08T07:30:36.180Z,-1.19
2023-02-08T07:31:36.128Z,-1.07
2023-02-08T07:32:36.080Z,-1.04
2023-02-08T07:33:36.151Z,-0.98
2023-02-08T07:34:36.068Z,-0.83
2023-02-08T07:35:36.034Z,-0.73
2023-02-08T07:36:36.072Z,-0.73
2023-02-08T07:37:36.052Z,-0.69
2023-02-08T07:38:36.039Z,-0.62
2023-02-08T07:39:36.014Z,-0.67
2023-02-08T07:40:36.026Z,-0.67
2023-02-08T07:41:36.030Z,-0.51
2023-02-08T07:42:36.036Z,-0.47
2023-02-08T07:43:35.999Z,-0.46
2023-02-08T07:44:36.005Z,-0.34
2023-02-08T07:45:44.183Z,-0.22
2023-02-08T07:46:35.972Z,-0.33
2023-02-08T07:47:35.967Z,-0.26
2023-02-08T07:48:35.982Z,-0.18
2023-02-08T07:49:35.953Z,-0.15
2023-02-08T07:50:35.946Z,-0.04
2023-02-08T07:51:35.924Z,0.03
2023-02-08T07:52:35.941Z,0.10
2023-02-08T07:53:35.925Z,0.24
2023-02-08T07:54:35.917Z,0.38
2023-02-08T07:55:35.930Z,0.51
2023-02-08T07:56:35.906Z,0.62
2023-02-08T07:57:35.896Z,0.79
2023-02-08T07:58:35.880Z,0.76
2023-02-08T07:59:35.886Z,0.93
2023-02-08T08:00:35.883Z,1.02
2023-02-08T08:01:35.952Z,1.09
2023-02-08T08:02:35.865Z,1.27
2023-02-08T08:03:35.908Z,1.47
2023-02-08T08:04:35.855Z,1.55
2023-02-08T08:05:35.895Z,1.62
2023-02-08T08:06:35.855Z,1.68
2023-02-08T08:07:35.864Z,1.83
2023-02-08T08:08:35.829Z,1.73
2023-02-08T08:09:35.830Z,1.84
2023-02-08T08:10:35.835Z,1.91
2023-02-08T08:11:35.829Z,1.95
2023-02-08T08:12:35.812Z,2.05
2023-02-08T08:13:35.832Z,2.20
2023-02-08T08:14:35.809Z,2.18
2023-02-08T08:15:35.798Z,2.42
2023-02-08T08:16:35.869Z,2.41
2023-02-08T08:17:35.786Z,2.57
2023-02-08T08:18:35.806Z,2.53
2023-02-08T08:19:35.796Z,2.69
2023-02-08T08:20:35.769Z,2.75
2023-02-08T08:21:35.781Z,2.82
2023-02-08T08:22:35.766Z,3.06
2023-02-08T08:23:35.784Z,3.18
2023-02-08T08:24:35.767Z,3.18
2023-02-08T08:25:35.762Z,3.35
2023-02-08T08:26:35.764Z,3.36
2023-02-08T08:27:35.750Z,3.35
2023-02-08T08:28:35.837Z,3.32
2023-02-08T08:29:35.757Z,3.26
2023-02-08T08:30:35.732Z,3.28
2023-02-08T08:31:35.823Z,3.40
2023-02-08T08:32:35.724Z,3.45
2023-02-08T08:33:35.713Z,3.52
2023-02-08T08:34:35.716Z,3.68
2023-02-08T08:35:35.736Z,3.69
2023-02-08T08:36:35.708Z,3.80
2023-02-08T08:37:35.715Z,4.08
2023-02-08T08:38:35.711Z,4.12
2023-02-08T08:39:35.711Z,4.30
2023-02-08T08:40:35.694Z,4.32
2023-02-08T08:41:35.694Z,4.18
2023-02-08T08:42:35.699Z,4.26
2023-02-08T08:43:35.693Z,4.24
2023-02-08T08:44:35.688Z,4.41
2023-02-08T08:45:35.683Z,4.55
2023-02-08T08:46:35.723Z,4.63
2023-02-08T08:47:35.687Z,4.73
2023-02-08T08:48:35.693Z,4.67
2023-02-08T08:49:35.681Z,4.67
2023-02-08T08:50:35.725Z,4.75
2023-02-08T08:51:35.670Z,4.82
2023-02-08T08:52:35.658Z,4.80
2023-02-08T08:53:35.678Z,4.88
2023-02-08T08:54:35.658Z,4.84
2023-02-08T08:55:35.660Z,4.85
2023-02-08T08:56:35.667Z,4.82
2023-02-08T08:57:35.669Z,4.96
2023-02-08T08:58:35.656Z,4.72
2023-02-08T08:59:35.664Z,4.59
2023-02-08T09:00:35.657Z,4.32
2023-02-08T09:01:35.672Z,4.45
2023-02-08T09:02:35.654Z,4.45
2023-02-08T09:03:35.692Z,4.41
2023-02-08T09:04:35.637Z,4.50
2023-02-08T09:05:35.666Z,5.03
2023-02-08T09:06:35.629Z,5.65
2023-02-08T09:07:35.636Z,5.96
2023-02-08T09:08:35.646Z,6.06
2023-02-08T09:09:35.621Z,5.94
2023-02-08T09:10:35.659Z,5.67
2023-02-08T09:11:35.630Z,5.42
2023-02-08T09:12:35.675Z,5.39
2023-02-08T09:13:35.616Z,5.76
2023-02-08T09:14:35.620Z,5.49
2023-02-08T09:15:35.620Z,5.25
2023-02-08T09:16:35.626Z,5.21
2023-02-08T09:17:35.644Z,5.31
2023-02-08T09:18:35.605Z,5.40
2023-02-08T09:19:35.613Z,5.46
2023-02-08T09:20:35.621Z,5.30
2023-02-08T09:21:35.612Z,5.27
2023-02-08T09:22:35.596Z,5.30
2023-02-08T09:23:35.607Z,5.43
2023-02-08T09:24:35.622Z,5.49
2023-02-08T09:25:35.646Z,5.74
2023-02-08T09:26:35.622Z,6.00
2023-02-08T09:27:35.629Z,6.12
2023-02-08T09:28:35.613Z,6.21
2023-02-08T09:29:35.577Z,6.70
2023-02-08T09:30:35.589Z,6.81
2023-02-08T09:31:35.707Z,7.05
2023-02-08T09:32:35.582Z,7.21
2023-02-08T09:33:35.598Z,7.05
2023-02-08T09:34:35.572Z,7.25
2023-02-08T09:35:35.584Z,7.21
2023-02-08T09:36:35.566Z,6.74
2023-02-08T09:37:35.572Z,6.55
2023-02-08T09:38:35.576Z,6.36
2023-02-08T09:39:35.585Z,6.36
2023-02-08T09:40:35.571Z,6.81
2023-02-08T09:41:35.567Z,7.57
2023-02-08T09:42:35.572Z,7.63
2023-02-08T09:43:35.561Z,7.72
2023-02-08T09:44:35.587Z,7.60
2023-02-08T09:45:35.560Z,7.75
2023-02-08T09:46:35.627Z,7.57
2023-02-08T09:47:36.269Z,7.74
2023-02-08T09:48:35.564Z,8.18
2023-02-08T09:49:35.580Z,8.36
2023-02-08T09:50:35.553Z,8.48
2023-02-08T09:51:35.561Z,8.63
2023-02-08T09:52:35.560Z,9.01
2023-02-08T09:53:35.568Z,9.38
2023-02-08T09:54:35.556Z,9.64
2023-02-08T09:55:35.577Z,10.15
2023-02-08T09:56:35.542Z,10.15
2023-02-08T09:57:35.548Z,10.42
2023-02-08T09:58:35.559Z,10.79
2023-02-08T09:59:35.557Z,10.70
2023-02-08T10:00:35.603Z,11.19
2023-02-08T10:01:35.548Z,10.52
2023-02-08T10:02:35.545Z,10.18
2023-02-08T10:03:35.604Z,10.08
2023-02-08T10:04:35.531Z,9.53
2023-02-08T10:05:35.545Z,9.01
2023-02-08T10:06:35.567Z,8.91
2023-02-08T10:07:35.533Z,9.35
2023-02-08T10:08:35.920Z,9.20
2023-02-08T10:09:35.526Z,9.05
2023-02-08T10:10:35.548Z,9.10
2023-02-08T10:11:35.541Z,9.10
2023-02-08T10:12:35.537Z,9.66
2023-02-08T10:13:41.449Z,9.97
2023-02-08T10:14:35.578Z,10.29
2023-02-08T10:15:35.542Z,10.29
2023-02-08T10:16:35.627Z,9.83
2023-02-08T10:17:35.533Z,9.75
2023-02-08T10:18:35.517Z,9.84
2023-02-08T10:19:35.520Z,10.29
2023-02-08T10:20:35.533Z,10.51
2023-02-08T10:21:35.548Z,10.11
2023-02-08T10:22:35.539Z,9.42
2023-02-08T10:23:35.526Z,9.08
2023-02-08T10:24:35.528Z,8.91
2023-02-08T10:25:35.533Z,8.33
2023-02-08T10:26:35.548Z,7.61
2023-02-08T10:27:35.516Z,7.45
2023-02-08T10:28:35.565Z,7.58
2023-02-08T10:29:35.510Z,7.71
2023-02-08T10:30:35.580Z,7.30
2023-02-08T10:31:35.571Z,7.02
2023-02-08T10:32:35.538Z,7.24
2023-02-08T10:33:35.525Z,7.63
2023-02-08T10:34:35.521Z,8.16
2023-02-08T10:35:35.506Z,8.76
2023-02-08T10:36:35.519Z,9.33
2023-02-08T10:37:35.527Z,9.14
2023-02-08T10:38:45.903Z,9.42
2023-02-08T10:39:35.820Z,10.02
2023-02-08T10:40:35.580Z,10.41
2023-02-08T10:41:35.525Z,11.06
2023-02-08T10:42:35.534Z,11.62
2023-02-08T10:43:35.560Z,12.53
2023-02-08T10:44:35.490Z,12.86
2023-02-08T10:45:35.545Z,13.10
2023-02-08T10:46:35.501Z,12.39
2023-02-08T10:47:35.516Z,12.85
2023-02-08T10:48:35.521Z,12.90
2023-02-08T10:49:35.501Z,12.92
2023-02-08T10:50:35.502Z,13.12
2023-02-08T10:51:35.519Z,13.12
2023-02-08T10:52:35.492Z,11.99
2023-02-08T10:53:35.514Z,11.28
2023-02-08T10:54:35.512Z,10.78
2023-02-08T10:55:36.533Z,11.14
2023-02-08T10:56:35.506Z,11.09
2023-02-08T10:57:35.493Z,10.44
2023-02-08T10:58:35.500Z,10.05
2023-02-08T10:59:35.513Z,10.20
2023-02-08T11:00:35.501Z,9.72
2023-02-08T11:01:35.496Z,9.17
2023-02-08T11:02:35.510Z,8.40
2023-02-08T11:03:35.494Z,7.61
2023-02-08T11:04:35.528Z,7.12
2023-02-08T11:05:35.512Z,6.85
2023-02-08T11:06:35.508Z,6.77
2023-02-08T11:07:36.840Z,6.61
2023-02-08T11:08:35.476Z,6.52
2023-02-08T11:09:35.495Z,6.41
2023-02-08T11:10:35.499Z,6.25
2023-02-08T11:11:35.477Z,6.00
2023-02-08T11:12:35.480Z,5.74
2023-02-08T11:13:36.679Z,5.42
2023-02-08T11:14:46.300Z,5.22
2023-02-08T11:15:35.502Z,4.73
2023-02-08T11:16:35.571Z,4.48
2023-02-08T11:17:35.487Z,4.23
2023-02-08T11:18:35.487Z,4.11
2023-02-08T11:19:35.620Z,4.06
2023-02-08T11:20:35.455Z,4.06
2023-02-08T11:21:35.462Z,3.98
2023-02-08T11:22:35.461Z,3.90
2023-02-08T11:23:35.468Z,4.00
2023-02-08T11:24:35.468Z,4.30
2023-02-08T11:25:35.978Z,4.51
2023-02-08T11:26:35.458Z,5.02
2023-02-08T11:27:35.462Z,5.27
2023-02-08T11:28:35.442Z,5.83
2023-02-08T11:29:35.438Z,6.70
2023-02-08T11:30:35.462Z,7.82
2023-02-08T11:31:35.512Z,8.66
2023-02-08T11:32:35.463Z,8.99
2023-02-08T11:33:35.431Z,9.56
2023-02-08T11:34:35.428Z,10.18
2023-02-08T11:35:35.444Z,10.48
2023-02-08T11:36:35.435Z,10.59
2023-02-08T11:37:35.421Z,10.47
2023-02-08T11:38:35.427Z,10.91
2023-02-08T11:39:35.442Z,11.14
2023-02-08T11:40:35.425Z,11.76
2023-02-08T11:41:37.666Z,12.16
2023-02-08T11:42:35.430Z,12.07
2023-02-08T11:43:35.431Z,11.33
2023-02-08T11:44:35.402Z,10.97
2023-02-08T11:45:35.422Z,11.03
2023-02-08T11:46:35.398Z,10.71
2023-02-08T11:47:35.408Z,11.21
2023-02-08T11:48:35.408Z,11.17
2023-02-08T11:49:35.401Z,11.10
2023-02-08T11:50:35.395Z,10.88
2023-02-08T11:51:35.381Z,10.91
2023-02-08T11:52:35.388Z,10.79
2023-02-08T11:53:35.405Z,10.47
2023-02-08T11:54:35.385Z,10.45
2023-02-08T11:55:35.406Z,10.73
2023-02-08T11:56:35.400Z,10.66
2023-02-08T11:57:35.362Z,10.48
2023-02-08T11:58:35.382Z,10.29
2023-02-08T11:59:35.380Z,10.12
2023-02-08T12:00:35.388Z,10.17
2023-02-08T12:01:35.389Z,9.93
2023-02-08T12:02:35.485Z,9.46
2023-02-08T12:03:35.394Z,9.28
2023-02-08T12:04:35.373Z,9.11
2023-02-08T12:05:35.392Z,8.95
2023-02-08T12:06:35.353Z,9.17
2023-02-08T12:07:35.373Z,9.38
2023-02-08T12:08:35.346Z,9.51
2023-02-08T12:09:37.409Z,9.33
2023-02-08T12:10:36.102Z,9.20
2023-02-08T12:11:35.360Z,8.81
2023-02-08T12:12:35.339Z,8.73
2023-02-08T12:13:35.333Z,8.99
2023-02-08T12:14:35.335Z,9.64
2023-02-08T12:15:40.200Z,9.84
2023-02-08T12:16:35.348Z,10.09
2023-02-08T12:17:35.327Z,10.27
2023-02-08T12:18:35.341Z,10.02
2023-02-08T12:19:35.310Z,9.74
2023-02-08T12:20:35.376Z,9.50
2023-02-08T12:21:35.341Z,9.31
2023-02-08T12:22:35.309Z,9.17
2023-02-08T12:23:35.319Z,9.05
2023-02-08T12:24:35.321Z,9.26
2023-02-08T12:25:35.323Z,9.58
2023-02-08T12:26:35.302Z,9.86
2023-02-08T12:27:35.296Z,9.75
2023-02-08T12:28:35.296Z,9.90
2023-02-08T12:29:46.960Z,9.96
2023-02-08T12:30:35.327Z,9.94
2023-02-08T12:31:35.341Z,10.18
2023-02-08T12:32:35.287Z,10.05
2023-02-08T12:33:35.277Z,10.04
2023-02-08T12:34:35.272Z,10.29
2023-02-08T12:35:43.591Z,10.12
2023-02-08T12:36:35.262Z,9.69
2023-02-08T12:37:35.289Z,9.40
2023-02-08T12:38:35.263Z,9.21
2023-02-08T12:39:35.259Z,9.29
2023-02-08T12:40:35.248Z,9.24
2023-02-08T12:41:35.249Z,9.15
2023-02-08T12:42:35.261Z,8.95
2023-02-08T12:43:35.235Z,8.52
2023-02-08T12:44:35.222Z,8.40
2023-02-08T12:45:35.234Z,8.12
2023-02-08T12:46:35.268Z,8.02
2023-02-08T12:47:35.231Z,7.67
2023-02-08T12:48:35.228Z,7.46
2023-02-08T12:49:35.244Z,7.32
2023-02-08T12:50:35.225Z,7.20
2023-02-08T12:51:35.224Z,6.64
2023-02-08T12:52:35.211Z,6.36
2023-02-08T12:53:35.224Z,6.14
2023-02-08T12:54:35.204Z,5.99
2023-02-08T12:55:35.201Z,5.96
2023-02-08T12:56:35.215Z,6.06
2023-02-08T12:57:35.203Z,6.12
2023-02-08T12:58:35.194Z,6.04
2023-02-08T12:59:35.192Z,6.11
2023-02-08T13:00:35.206Z,6.12